sensor_id;sensor_type;location;lat;lon;timestamp;pressure;altitude;pressure_sealevel;temperature;humidity
22047;BME280;11187;49.412;20.956;2023-01-29T00:01:36;95564.97;;;-2.53;100.00
22047;BME280;11187;49.412;20.956;2023-01-29T00:04:23;95556.59;;;-2.53;100.00
22047;BME280;11187;49.412;20.956;2023-01-29T00:06:56;95564.19;;;-2.52;100.00
22047;BME280;11187;49.412;20.956;2023-01-29T00:09:43;95563.34;;;-2.52;100.00
22047;BME280;11187;49.412;20.956;2023-01-29T00:12:16;95561.72;;;-2.50;100.00
22047;BME280;11187;49.412;20.956;2023-01-29T00:15:03;95562.59;;;-2.49;100.00
22047;BME280;11187;49.412;20.956;2023-01-29T00:17:36;95558.38;;;-2.50;100.00
22047;BME280;11187;49.412;20.956;2023-01-29T00:20:30;95566.03;;;-2.47;100.00
22047;BME280;11187;49.412;20.956;2023-01-29T00:23:24;95568.53;;;-2.47;100.00
22047;BME280;11187;49.412;20.956;2023-01-29T00:26:18;95570.22;;;-2.46;100.00
22047;BME280;11187;49.412;20.956;2023-01-29T00:29:12;95569.25;;;-2.50;100.00
22047;BME280;11187;49.412;20.956;2023-01-29T00:31:45;95566.56;;;-2.55;100.00
22047;BME280;11187;49.412;20.956;2023-01-29T00:34:32;95574.78;;;-2.59;100.00
22047;BME280;11187;49.412;20.956;2023-01-29T00:37:05;95569.63;;;-2.62;100.00
22047;BME280;11187;49.412;20.956;2023-01-29T00:39:59;95566.94;;;-2.66;100.00
22047;BME280;11187;49.412;20.956;2023-01-29T00:42:53;95571.94;;;-2.66;100.00
22047;BME280;11187;49.412;20.956;2023-01-29T00:45:44;95575.81;;;-2.75;100.00
22047;BME280;11187;49.412;20.956;2023-01-29T00:48:31;95576.41;;;-2.80;100.00
22047;BME280;11187;49.412;20.956;2023-01-29T00:51:05;95579.91;;;-2.77;100.00
22047;BME280;11187;49.412;20.956;2023-01-29T00:53:59;95578.81;;;-2.83;100.00
22047;BME280;11187;49.412;20.956;2023-01-29T00:56:53;95578.06;;;-2.81;100.00
22047;BME280;11187;49.412;20.956;2023-01-29T00:59:47;95574.84;;;-2.78;100.00
22047;BME280;11187;49.412;20.956;2023-01-29T01:02:41;95571.66;;;-2.74;100.00
22047;BME280;11187;49.412;20.956;2023-01-29T01:05:33;95560.97;;;-2.70;100.00
22047;BME280;11187;49.412;20.956;2023-01-29T01:08:21;95570.25;;;-2.67;100.00
22047;BME280;11187;49.412;20.956;2023-01-29T01:11:12;95570.28;;;-2.66;100.00
22047;BME280;11187;49.412;20.956;2023-01-29T01:14:06;95569.44;;;-2.66;100.00
22047;BME280;11187;49.412;20.956;2023-01-29T01:17:00;95568.66;;;-2.65;100.00
22047;BME280;11187;49.412;20.956;2023-01-29T01:19:54;95570.44;;;-2.63;100.00
22047;BME280;11187;49.412;20.956;2023-01-29T01:22:27;95567.97;;;-2.61;100.00
22047;BME280;11187;49.412;20.956;2023-01-29T01:25:22;95572.88;;;-2.64;100.00
22047;BME280;11187;49.412;20.956;2023-01-29T01:27:57;95578.72;;;-2.64;100.00
22047;BME280;11187;49.412;20.956;2023-01-29T01:30:51;95576.22;;;-2.64;100.00
22047;BME280;11187;49.412;20.956;2023-01-29T01:33:45;95581.94;;;-2.68;100.00
22047;BME280;11187;49.412;20.956;2023-01-29T01:36:18;95574.47;;;-2.66;100.00
22047;BME280;11187;49.412;20.956;2023-01-29T01:39:12;95573.69;;;-2.65;100.00
22047;BME280;11187;49.412;20.956;2023-01-29T01:42:11;95575.31;;;-2.66;100.00
22047;BME280;11187;49.412;20.956;2023-01-29T01:45:07;95587.84;;;-2.66;100.00
22047;BME280;11187;49.412;20.956;2023-01-29T01:47:52;95576.72;;;-2.73;100.00
22047;BME280;11187;49.412;20.956;2023-01-29T01:53:25;95573.44;;;-2.71;100.00
22047;BME280;11187;49.412;20.956;2023-01-29T01:56:27;95572.78;;;-2.66;100.00
22047;BME280;11187;49.412;20.956;2023-01-29T01:59:13;95575.31;;;-2.66;100.00
22047;BME280;11187;49.412;20.956;2023-01-29T02:02:08;95583.53;;;-2.70;100.00
22047;BME280;11187;49.412;20.956;2023-01-29T02:04:59;95574.94;;;-2.75;100.00
22047;BME280;11187;49.412;20.956;2023-01-29T02:08:05;95589.13;;;-2.76;100.00
22047;BME280;11187;49.412;20.956;2023-01-29T02:10:56;95580.69;;;-2.78;100.00
22047;BME280;11187;49.412;20.956;2023-01-29T02:13:51;95578.84;;;-2.82;100.00
22047;BME280;11187;49.412;20.956;2023-01-29T02:16:45;95577.16;;;-2.83;100.00
22047;BME280;11187;49.412;20.956;2023-01-29T02:41:20;95575.56;;;-2.81;100.00
22047;BME280;11187;49.412;20.956;2023-01-29T02:50:18;95579.94;;;-2.75;100.00
22047;BME280;11187;49.412;20.956;2023-01-29T02:53:24;95575.09;;;-2.72;100.00
22047;BME280;11187;49.412;20.956;2023-01-29T02:58:48;95568.31;;;-2.75;100.00
22047;BME280;11187;49.412;20.956;2023-01-29T03:01:30;95568.31;;;-2.75;100.00
22047;BME280;11187;49.412;20.956;2023-01-29T03:04:30;95565.63;;;-2.79;100.00
22047;BME280;11187;49.412;20.956;2023-01-29T03:07:09;95561.31;;;-2.82;100.00
22047;BME280;11187;49.412;20.956;2023-01-29T03:10:29;95558.09;;;-2.79;100.00
22047;BME280;11187;49.412;20.956;2023-01-29T03:16:09;95552.28;;;-2.78;100.00
22047;BME280;11187;49.412;20.956;2023-01-29T03:19:05;95551.47;;;-2.77;100.00
22047;BME280;11187;49.412;20.956;2023-01-29T03:21:43;95554.97;;;-2.74;100.00
22047;BME280;11187;49.412;20.956;2023-01-29T03:24:48;95541.69;;;-2.71;100.00
22047;BME280;11187;49.412;20.956;2023-01-29T03:28:02;95542.44;;;-2.74;100.00
22047;BME280;11187;49.412;20.956;2023-01-29T03:31:16;95540.00;;;-2.72;100.00
22047;BME280;11187;49.412;20.956;2023-01-29T03:34:30;95532.22;;;-2.78;100.00
22047;BME280;11187;49.412;20.956;2023-01-29T03:37:12;95531.50;;;-2.76;100.00
22047;BME280;11187;49.412;20.956;2023-01-29T03:40:09;95530.81;;;-2.71;100.00
22047;BME280;11187;49.412;20.956;2023-01-29T03:52:29;95549.03;;;-2.76;100.00
22047;BME280;11187;49.412;20.956;2023-01-29T03:55:41;95549.16;;;-2.73;100.00
22047;BME280;11187;49.412;20.956;2023-01-29T04:01:15;95548.44;;;-2.70;100.00
22047;BME280;11187;49.412;20.956;2023-01-29T04:03:55;95549.16;;;-2.73;100.00
22047;BME280;11187;49.412;20.956;2023-01-29T04:06:59;95545.59;;;-2.78;100.00
22047;BME280;11187;49.412;20.956;2023-01-29T04:10:06;95560.78;;;-2.75;100.00
22047;BME280;11187;49.412;20.956;2023-01-29T04:12:54;95551.19;;;-2.85;100.00
22047;BME280;11187;49.412;20.956;2023-01-29T04:15:49;95557.03;;;-2.84;100.00
22047;BME280;11187;49.412;20.956;2023-01-29T04:18:24;95545.31;;;-2.85;100.00
22047;BME280;11187;49.412;20.956;2023-01-29T04:21:11;95551.25;;;-2.83;100.00
22047;BME280;11187;49.412;20.956;2023-01-29T04:23:45;95550.41;;;-2.84;100.00
22047;BME280;11187;49.412;20.956;2023-01-29T04:32:31;95540.31;;;-2.85;100.00
22047;BME280;11187;49.412;20.956;2023-01-29T04:35:39;95540.41;;;-2.82;100.00
22047;BME280;11187;49.412;20.956;2023-01-29T04:47:17;95542.31;;;-2.77;100.00
22047;BME280;11187;49.412;20.956;2023-01-29T04:53:27;95527.16;;;-2.80;100.00
22047;BME280;11187;49.412;20.956;2023-01-29T04:56:41;95535.41;;;-2.82;100.00
22047;BME280;11187;49.412;20.956;2023-01-29T04:59:32;95528.63;;;-2.85;100.00
22047;BME280;11187;49.412;20.956;2023-01-29T05:02:23;95538.53;;;-2.88;100.00
22047;BME280;11187;49.412;20.956;2023-01-29T05:04:58;95540.31;;;-2.85;100.00
22047;BME280;11187;49.412;20.956;2023-01-29T05:07:52;95533.72;;;-2.83;100.00
22047;BME280;11187;49.412;20.956;2023-01-29T05:10:49;95535.41;;;-2.82;100.00
22047;BME280;11187;49.412;20.956;2023-01-29T05:13:24;95539.47;;;-2.86;100.00
22047;BME280;11187;49.412;20.956;2023-01-29T05:16:21;95540.38;;;-2.84;100.00
22047;BME280;11187;49.412;20.956;2023-01-29T05:18:56;95543.00;;;-2.81;100.00
22047;BME280;11187;49.412;20.956;2023-01-29T05:21:48;95540.59;;;-2.78;100.00
22047;BME280;11187;49.412;20.956;2023-01-29T05:24:24;95541.41;;;-2.79;100.00
22047;BME280;11187;49.412;20.956;2023-01-29T05:27:17;95548.13;;;-2.78;100.00
22047;BME280;11187;49.412;20.956;2023-01-29T05:30:09;95540.75;;;-2.75;100.00
22047;BME280;11187;49.412;20.956;2023-01-29T05:32:57;95532.34;;;-2.75;100.00
22047;BME280;11187;49.412;20.956;2023-01-29T05:35:30;95535.41;;;-2.82;100.00
22047;BME280;11187;49.412;20.956;2023-01-29T05:38:25;95540.31;;;-2.85;100.00
22047;BME280;11187;49.412;20.956;2023-01-29T05:40:58;95541.16;;;-2.85;100.00
22047;BME280;11187;49.412;20.956;2023-01-29T05:43:48;95537.66;;;-2.88;100.00
22047;BME280;11187;49.412;20.956;2023-01-29T05:46:21;95536.06;;;-2.86;100.00
22047;BME280;11187;49.412;20.956;2023-01-29T05:49:08;95530.09;;;-2.90;100.00
22047;BME280;11187;49.412;20.956;2023-01-29T05:51:44;95525.09;;;-2.90;100.00
22047;BME280;11187;49.412;20.956;2023-01-29T05:54:31;95526.94;;;-2.86;100.00
22047;BME280;11187;49.412;20.956;2023-01-29T05:57:04;95531.22;;;-2.83;100.00
22047;BME280;11187;49.412;20.956;2023-01-29T05:59:58;95522.03;;;-2.83;100.00
22047;BME280;11187;49.412;20.956;2023-01-29T06:02:31;95511.28;;;-2.80;100.00
22047;BME280;11187;49.412;20.956;2023-01-29T06:05:25;95516.34;;;-2.79;100.00
22047;BME280;11187;49.412;20.956;2023-01-29T06:08:19;95516.28;;;-2.80;100.00
22047;BME280;11187;49.412;20.956;2023-01-29T06:10:52;95515.38;;;-2.82;100.00
22047;BME280;11187;49.412;20.956;2023-01-29T06:13:39;95513.72;;;-2.82;100.00
22047;BME280;11187;49.412;20.956;2023-01-29T06:16:12;95514.59;;;-2.81;100.00
22047;BME280;11187;49.412;20.956;2023-01-29T06:18:59;95523.81;;;-2.80;100.00
22047;BME280;11187;49.412;20.956;2023-01-29T06:21:32;95524.66;;;-2.80;100.00
22047;BME280;11187;49.412;20.956;2023-01-29T06:24:19;95522.16;;;-2.80;100.00
22047;BME280;11187;49.412;20.956;2023-01-29T06:27:13;95525.53;;;-2.79;100.00
22047;BME280;11187;49.412;20.956;2023-01-29T06:30:07;95528.91;;;-2.77;100.00
22047;BME280;11187;49.412;20.956;2023-01-29T06:32:42;95534.84;;;-2.75;100.00
22047;BME280;11187;49.412;20.956;2023-01-29T06:35:36;95539.81;;;-2.77;100.00
22047;BME280;11187;49.412;20.956;2023-01-29T06:38:30;95548.19;;;-2.76;100.00
22047;BME280;11187;49.412;20.956;2023-01-29T06:41:08;95552.38;;;-2.75;100.00
22047;BME280;11187;49.412;20.956;2023-01-29T06:43:55;95554.84;;;-2.77;100.00
22047;BME280;11187;49.412;20.956;2023-01-29T06:46:28;95556.19;;;-2.85;100.00
22047;BME280;11187;49.412;20.956;2023-01-29T06:49:15;95561.28;;;-2.83;100.00
22047;BME280;11187;49.412;20.956;2023-01-29T06:51:48;95558.69;;;-2.85;100.00
22047;BME280;11187;49.412;20.956;2023-01-29T06:54:42;95562.94;;;-2.84;100.00
22047;BME280;11187;49.412;20.956;2023-01-29T06:57:36;95554.53;;;-2.84;100.00
22047;BME280;11187;49.412;20.956;2023-01-29T07:00:10;95560.34;;;-2.85;100.00
22047;BME280;11187;49.412;20.956;2023-01-29T07:03:04;95561.38;;;-2.80;100.00
22047;BME280;11187;49.412;20.956;2023-01-29T07:05:37;95559.06;;;-2.76;100.00
22047;BME280;11187;49.412;20.956;2023-01-29T07:08:24;95559.13;;;-2.74;100.00
22047;BME280;11187;49.412;20.956;2023-01-29T07:10:58;95559.16;;;-2.73;100.00
22047;BME280;11187;49.412;20.956;2023-01-29T07:13:46;95563.28;;;-2.75;100.00
22047;BME280;11187;49.412;20.956;2023-01-29T07:16:19;95566.69;;;-2.73;100.00
22047;BME280;11187;49.412;20.956;2023-01-29T07:19:13;95565.16;;;-2.69;100.00
22047;BME280;11187;49.412;20.956;2023-01-29T07:22:07;95567.69;;;-2.69;100.00
22047;BME280;11187;49.412;20.956;2023-01-29T07:24:41;95559.13;;;-2.74;100.00
22047;BME280;11187;49.412;20.956;2023-01-29T07:27:28;95561.66;;;-2.73;100.00
22047;BME280;11187;49.412;20.956;2023-01-29T07:30:01;95563.16;;;-2.78;100.00
22047;BME280;11187;49.412;20.956;2023-01-29T07:32:48;95563.78;;;-2.83;100.00
22047;BME280;11187;49.412;20.956;2023-01-29T07:35:21;95557.22;;;-2.80;100.00
22047;BME280;11187;49.412;20.956;2023-01-29T07:38:15;95555.53;;;-2.81;100.00
22047;BME280;11187;49.412;20.956;2023-01-29T07:41:10;95563.97;;;-2.79;100.00
22047;BME280;11187;49.412;20.956;2023-01-29T07:43:43;95554.50;;;-2.86;100.00
22047;BME280;11187;49.412;20.956;2023-01-29T07:46:30;95566.75;;;-2.92;100.00
22047;BME280;11187;49.412;20.956;2023-01-29T07:49:03;95560.09;;;-2.91;100.00
22047;BME280;11187;49.412;20.956;2023-01-29T07:51:50;95560.22;;;-2.88;100.00
22047;BME280;11187;49.412;20.956;2023-01-29T07:54:23;95560.22;;;-2.88;100.00
22047;BME280;11187;49.412;20.956;2023-01-29T07:57:17;95557.00;;;-2.86;100.00
22047;BME280;11187;49.412;20.956;2023-01-29T07:59:50;95550.25;;;-2.87;100.00
22047;BME280;11187;49.412;20.956;2023-01-29T08:02:37;95557.84;;;-2.85;100.00
22047;BME280;11187;49.412;20.956;2023-01-29T08:05:10;95557.03;;;-2.84;100.00
22047;BME280;11187;49.412;20.956;2023-01-29T08:07:57;95558.81;;;-2.82;100.00
22047;BME280;11187;49.412;20.956;2023-01-29T08:10:37;95557.28;;;-2.78;100.00
22047;BME280;11187;49.412;20.956;2023-01-29T08:13:24;95567.44;;;-2.75;100.00
22047;BME280;11187;49.412;20.956;2023-01-29T08:15:59;95570.56;;;-2.81;100.00
22047;BME280;11187;49.412;20.956;2023-01-29T08:18:46;95573.13;;;-2.79;100.00
22047;BME280;11187;49.412;20.956;2023-01-29T08:21:19;95574.94;;;-2.75;100.00
22047;BME280;11187;49.412;20.956;2023-01-29T08:24:13;95581.63;;;-2.76;100.00
22047;BME280;11187;49.412;20.956;2023-01-29T08:27:26;95593.22;;;-2.78;100.00
22047;BME280;11187;49.412;20.956;2023-01-29T08:29:59;95585.69;;;-2.78;100.00
22047;BME280;11187;49.412;20.956;2023-01-29T08:32:46;95597.28;;;-2.81;100.00
22047;BME280;11187;49.412;20.956;2023-01-29T08:35:19;95599.69;;;-2.83;100.00
22047;BME280;11187;49.412;20.956;2023-01-29T08:38:06;95611.06;;;-2.91;100.00
22047;BME280;11187;49.412;20.956;2023-01-29T08:40:39;95611.75;;;-2.95;100.00
22047;BME280;11187;49.412;20.956;2023-01-29T08:43:33;95619.72;;;-3.04;100.00
22047;BME280;11187;49.412;20.956;2023-01-29T08:46:27;95621.31;;;-3.06;100.00
22047;BME280;11187;49.412;20.956;2023-01-29T08:49:00;95623.09;;;-3.03;100.00
22047;BME280;11187;49.412;20.956;2023-01-29T08:51:47;95622.03;;;-3.08;100.00
22047;BME280;11187;49.412;20.956;2023-01-29T08:54:20;95621.16;;;-3.09;100.00
22047;BME280;11187;49.412;20.956;2023-01-29T08:57:07;95631.06;;;-3.12;100.00
22047;BME280;11187;49.412;20.956;2023-01-29T08:59:40;95636.00;;;-3.13;100.00
22047;BME280;11187;49.412;20.956;2023-01-29T09:02:34;95633.25;;;-3.20;100.00
22047;BME280;11187;49.412;20.956;2023-01-29T09:05:28;95635.69;;;-3.21;100.00
22047;BME280;11187;49.412;20.956;2023-01-29T09:08:02;95644.72;;;-3.25;100.00
22047;BME280;11187;49.412;20.956;2023-01-29T09:10:49;95657.63;;;-3.35;100.00
22047;BME280;11187;49.412;20.956;2023-01-29T09:13:22;95659.00;;;-3.42;100.00
22047;BME280;11187;49.412;20.956;2023-01-29T09:16:12;95657.25;;;-3.44;100.00
22047;BME280;11187;49.412;20.956;2023-01-29T09:18:45;95657.50;;;-3.38;100.00
22047;BME280;11187;49.412;20.956;2023-01-29T09:21:32;95659.28;;;-3.36;100.00
22047;BME280;11187;49.412;20.956;2023-01-29T09:24:05;95650.31;;;-3.50;100.00
22047;BME280;11187;49.412;20.956;2023-01-29T09:27:00;95650.19;;;-3.53;100.00
22047;BME280;11187;49.412;20.956;2023-01-29T09:29:33;95638.59;;;-3.51;100.00
22047;BME280;11187;49.412;20.956;2023-01-29T09:32:20;95646.81;;;-3.53;100.00
22047;BME280;11187;49.412;20.956;2023-01-29T09:35:13;95652.16;;;-3.46;100.00
22047;BME280;11187;49.412;20.956;2023-01-29T09:38:10;95648.81;;;-3.46;100.00
22047;BME280;11187;49.412;20.956;2023-01-29T09:40:59;95653.19;;;-3.60;100.00
22047;BME280;11187;49.412;20.956;2023-01-29T09:43:59;95648.47;;;-3.54;100.00
22047;BME280;11187;49.412;20.956;2023-01-29T09:46:42;95646.19;;;-3.49;100.00
22047;BME280;11187;49.412;20.956;2023-01-29T09:49:35;95653.06;;;-3.44;100.00
22047;BME280;11187;49.412;20.956;2023-01-29T09:52:28;95641.50;;;-3.42;100.00
22047;BME280;11187;49.412;20.956;2023-01-29T09:55:31;95647.50;;;-3.38;100.00
22047;BME280;11187;49.412;20.956;2023-01-29T10:04:18;95618.75;;;-3.46;100.00
22047;BME280;11187;49.412;20.956;2023-01-29T10:10:21;95627.72;;;-3.32;100.00
22047;BME280;11187;49.412;20.956;2023-01-29T10:16:28;95611.91;;;-3.31;100.00
22047;BME280;11187;49.412;20.956;2023-01-29T10:25:16;95593.94;;;-3.22;100.00
22047;BME280;11187;49.412;20.956;2023-01-29T10:31:11;95597.00;;;-3.28;98.87
22047;BME280;11187;49.412;20.956;2023-01-29T10:34:26;95600.13;;;-3.33;97.54
22047;BME280;11187;49.412;20.956;2023-01-29T10:37:17;95591.63;;;-3.37;98.00
22047;BME280;11187;49.412;20.956;2023-01-29T10:40:23;95576.72;;;-3.34;98.62
22047;BME280;11187;49.412;20.956;2023-01-29T10:52:50;95561.69;;;-3.15;98.71
22047;BME280;11187;49.412;20.956;2023-01-29T10:56:04;95549.22;;;-3.13;97.62
22047;BME280;11187;49.412;20.956;2023-01-29T10:58:58;95552.09;;;-3.04;98.11
22047;BME280;11187;49.412;20.956;2023-01-29T11:01:47;95550.19;;;-2.88;97.95
22047;BME280;11187;49.412;20.956;2023-01-29T11:04:20;95555.53;;;-2.81;98.09
22047;BME280;11187;49.412;20.956;2023-01-29T11:07:17;95553.28;;;-2.75;97.39
22047;BME280;11187;49.412;20.956;2023-01-29T11:10:16;95546.97;;;-2.65;96.45
22047;BME280;11187;49.412;20.956;2023-01-29T11:12:52;95542.53;;;-2.49;96.13
22047;BME280;11187;49.412;20.956;2023-01-29T11:15:40;95539.50;;;-2.41;94.64
22047;BME280;11187;49.412;20.956;2023-01-29T11:18:13;95526.41;;;-2.56;91.86
22047;BME280;11187;49.412;20.956;2023-01-29T11:21:07;95520.03;;;-2.48;92.93
22047;BME280;11187;49.412;20.956;2023-01-29T11:23:40;95506.38;;;-2.34;93.79
22047;BME280;11187;49.412;20.956;2023-01-29T11:26:27;95513.94;;;-2.32;91.70
22047;BME280;11187;49.412;20.956;2023-01-29T11:29:36;95512.81;;;-2.40;91.77
22047;BME280;11187;49.412;20.956;2023-01-29T11:32:14;95498.84;;;-2.34;90.42
22047;BME280;11187;49.412;20.956;2023-01-29T11:37:46;95487.38;;;-2.27;91.38
22047;BME280;11187;49.412;20.956;2023-01-29T11:40:38;95485.81;;;-2.23;90.64
22047;BME280;11187;49.412;20.956;2023-01-29T11:46:20;95472.38;;;-2.25;88.46
22047;BME280;11187;49.412;20.956;2023-01-29T11:48:54;95463.09;;;-2.28;90.25
22047;BME280;11187;49.412;20.956;2023-01-29T11:52:01;95451.13;;;-2.35;89.80
22047;BME280;11187;49.412;20.956;2023-01-29T11:54:39;95446.56;;;-2.45;90.05
22047;BME280;11187;49.412;20.956;2023-01-29T11:57:36;95431.16;;;-2.56;90.12
22047;BME280;11187;49.412;20.956;2023-01-29T12:05:54;95402.09;;;-2.74;91.31
22047;BME280;11187;49.412;20.956;2023-01-29T12:08:59;95399.53;;;-2.75;91.69
22047;BME280;11187;49.412;20.956;2023-01-29T12:12:16;95400.34;;;-2.76;91.75
22047;BME280;11187;49.412;20.956;2023-01-29T12:15:01;95407.06;;;-2.75;91.47
22047;BME280;11187;49.412;20.956;2023-01-29T12:18:15;95393.78;;;-2.73;92.30
22047;BME280;11187;49.412;20.956;2023-01-29T12:21:30;95393.16;;;-2.67;92.70
22047;BME280;11187;49.412;20.956;2023-01-29T12:24:45;95395.91;;;-2.61;91.63
22047;BME280;11187;49.412;20.956;2023-01-29T12:30:59;95399.91;;;-2.42;92.62
22047;BME280;11187;49.412;20.956;2023-01-29T12:33:54;95394.00;;;-2.44;92.04
22047;BME280;11187;49.412;20.956;2023-01-29T12:39:30;95393.47;;;-2.35;92.18
22047;BME280;11187;49.412;20.956;2023-01-29T12:42:19;95393.47;;;-2.35;92.46
22047;BME280;11187;49.412;20.956;2023-01-29T12:45:08;95397.66;;;-2.34;92.98
22047;BME280;11187;49.412;20.956;2023-01-29T12:47:47;95394.22;;;-2.38;92.28
22047;BME280;11187;49.412;20.956;2023-01-29T12:50:36;95387.22;;;-2.46;93.12
22047;BME280;11187;49.412;20.956;2023-01-29T12:53:49;95389.78;;;-2.45;93.00
22047;BME280;11187;49.412;20.956;2023-01-29T12:56:38;95376.38;;;-2.45;92.95
22047;BME280;11187;49.412;20.956;2023-01-29T12:59:43;95373.78;;;-2.48;93.07
22047;BME280;11187;49.412;20.956;2023-01-29T13:02:53;95380.38;;;-2.50;93.42
22047;BME280;11187;49.412;20.956;2023-01-29T13:06:00;95376.13;;;-2.53;93.13
22047;BME280;11187;49.412;20.956;2023-01-29T13:09:07;95376.13;;;-2.53;93.50
22047;BME280;11187;49.412;20.956;2023-01-29T13:12:11;95380.34;;;-2.52;93.35
22047;BME280;11187;49.412;20.956;2023-01-29T13:15:01;95379.59;;;-2.49;93.13
22047;BME280;11187;49.412;20.956;2023-01-29T13:18:32;95382.25;;;-2.45;92.68
22047;BME280;11187;49.412;20.956;2023-01-29T13:21:35;95382.38;;;-2.42;92.85
22047;BME280;11187;49.412;20.956;2023-01-29T13:24:14;95380.66;;;-2.43;92.52
22047;BME280;11187;49.412;20.956;2023-01-29T13:27:02;95379.94;;;-2.39;93.57
22047;BME280;11187;49.412;20.956;2023-01-29T13:29:36;95386.00;;;-2.34;92.44
22047;BME280;11187;49.412;20.956;2023-01-29T13:32:28;95381.00;;;-2.34;92.10
22047;BME280;11187;49.412;20.956;2023-01-29T13:35:10;95381.69;;;-2.38;92.46
22047;BME280;11187;49.412;20.956;2023-01-29T13:37:58;95389.19;;;-2.38;91.91
22047;BME280;11187;49.412;20.956;2023-01-29T13:40:32;95388.06;;;-2.46;92.03
22047;BME280;11187;49.412;20.956;2023-01-29T13:43:20;95382.19;;;-2.46;91.90
22047;BME280;11187;49.412;20.956;2023-01-29T13:45:54;95388.03;;;-2.47;91.41
22047;BME280;11187;49.412;20.956;2023-01-29T13:48:43;95384.66;;;-2.48;91.83
22047;BME280;11187;49.412;20.956;2023-01-29T13:51:20;95382.19;;;-2.46;92.22
22047;BME280;11187;49.412;20.956;2023-01-29T13:54:20;95382.13;;;-2.48;91.35
22047;BME280;11187;49.412;20.956;2023-01-29T13:56:59;95386.31;;;-2.48;92.17
22047;BME280;11187;49.412;20.956;2023-01-29T13:59:50;95385.34;;;-2.52;92.44
22047;BME280;11187;49.412;20.956;2023-01-29T14:02:28;95398.75;;;-2.52;92.74
22047;BME280;11187;49.412;20.956;2023-01-29T14:13:48;95409.28;;;-2.60;92.97
22047;BME280;11187;49.412;20.956;2023-01-29T14:16:35;95417.47;;;-2.64;92.43
22047;BME280;11187;49.412;20.956;2023-01-29T14:19:17;95413.28;;;-2.65;91.86
22047;BME280;11187;49.412;20.956;2023-01-29T14:22:19;95418.72;;;-2.76;92.03
22047;BME280;11187;49.412;20.956;2023-01-29T14:24:56;95418.56;;;-2.80;92.81
22047;BME280;11187;49.412;20.956;2023-01-29T14:27:52;95416.13;;;-2.79;93.68
22047;BME280;11187;49.412;20.956;2023-01-29T14:30:47;95415.22;;;-2.81;93.44
22047;BME280;11187;49.412;20.956;2023-01-29T14:33:31;95410.03;;;-2.85;92.50
22047;BME280;11187;49.412;20.956;2023-01-29T14:36:26;95412.41;;;-2.88;93.13
22047;BME280;11187;49.412;20.956;2023-01-29T14:42:30;95399.69;;;-2.93;93.94
22047;BME280;11187;49.412;20.956;2023-01-29T14:45:23;95393.66;;;-2.98;93.73
22047;BME280;11187;49.412;20.956;2023-01-29T14:48:37;95382.69;;;-3.02;94.33
22047;BME280;11187;49.412;20.956;2023-01-29T14:51:13;95368.19;;;-3.10;94.26
22047;BME280;11187;49.412;20.956;2023-01-29T14:54:23;95365.53;;;-3.13;94.26
22047;BME280;11187;49.412;20.956;2023-01-29T14:57:01;95358.00;;;-3.15;95.05
22047;BME280;11187;49.412;20.956;2023-01-29T14:59:55;95368.78;;;-3.16;95.20
22047;BME280;11187;49.412;20.956;2023-01-29T15:02:31;95374.72;;;-3.14;95.06
22047;BME280;11187;49.412;20.956;2023-01-29T15:05:41;95383.06;;;-3.13;95.46
22047;BME280;11187;49.412;20.956;2023-01-29T15:11:46;95379.88;;;-3.09;95.68
22047;BME280;11187;49.412;20.956;2023-01-29T15:14:49;95387.28;;;-3.12;95.78
22047;BME280;11187;49.412;20.956;2023-01-29T15:17:53;95389.63;;;-3.17;95.76
22047;BME280;11187;49.412;20.956;2023-01-29T15:21:00;95391.16;;;-3.21;96.05
22047;BME280;11187;49.412;20.956;2023-01-29T15:23:33;95389.38;;;-3.23;95.59
22047;BME280;11187;49.412;20.956;2023-01-29T15:26:27;95386.78;;;-3.26;95.55
22047;BME280;11187;49.412;20.956;2023-01-29T15:29:00;95377.50;;;-3.29;96.00
22047;BME280;11187;49.412;20.956;2023-01-29T15:31:55;95379.00;;;-3.32;96.27
22047;BME280;11187;49.412;20.956;2023-01-29T15:34:29;95377.91;;;-3.39;96.02
22047;BME280;11187;49.412;20.956;2023-01-29T15:37:32;95366.94;;;-3.43;96.35
22047;BME280;11187;49.412;20.956;2023-01-29T15:40:26;95360.84;;;-3.49;96.69
22047;BME280;11187;49.412;20.956;2023-01-29T15:42:59;95359.78;;;-3.54;96.72
22047;BME280;11187;49.412;20.956;2023-01-29T15:45:47;95362.25;;;-3.56;97.06
22047;BME280;11187;49.412;20.956;2023-01-29T15:48:26;95371.41;;;-3.57;97.11
22047;BME280;11187;49.412;20.956;2023-01-29T15:51:25;95368.78;;;-3.60;96.93
22047;BME280;11187;49.412;20.956;2023-01-29T15:54:05;95371.09;;;-3.64;97.04
22047;BME280;11187;49.412;20.956;2023-01-29T15:56:56;95369.25;;;-3.68;96.93
22047;BME280;11187;49.412;20.956;2023-01-29T15:59:33;95368.31;;;-3.72;97.24
22047;BME280;11187;49.412;20.956;2023-01-29T16:05:29;95369.44;;;-3.85;97.77
22047;BME280;11187;49.412;20.956;2023-01-29T16:08:02;95370.25;;;-3.86;97.78
22047;BME280;11187;49.412;20.956;2023-01-29T16:10:56;95360.84;;;-3.91;97.99
22047;BME280;11187;49.412;20.956;2023-01-29T16:13:32;95355.75;;;-3.93;98.18
22047;BME280;11187;49.412;20.956;2023-01-29T16:16:28;95358.22;;;-3.94;98.16
22047;BME280;11187;49.412;20.956;2023-01-29T16:19:12;95359.06;;;-3.94;98.52
22047;BME280;11187;49.412;20.956;2023-01-29T16:22:07;95364.88;;;-3.95;98.35
22047;BME280;11187;49.412;20.956;2023-01-29T16:27:57;95355.34;;;-4.04;98.57
22047;BME280;11187;49.412;20.956;2023-01-29T16:30:57;95364.44;;;-4.06;98.68
22047;BME280;11187;49.412;20.956;2023-01-29T16:33:35;95368.44;;;-4.09;98.68
22047;BME280;11187;49.412;20.956;2023-01-29T16:36:26;95367.47;;;-4.13;99.02
22047;BME280;11187;49.412;20.956;2023-01-29T16:39:02;95373.25;;;-4.14;99.13
22047;BME280;11187;49.412;20.956;2023-01-29T16:45:25;95372.41;;;-4.14;99.13
22047;BME280;11187;49.412;20.956;2023-01-29T16:48:29;95380.63;;;-4.17;98.89
22047;BME280;11187;49.412;20.956;2023-01-29T16:51:29;95381.28;;;-4.21;99.13
22047;BME280;11187;49.412;20.956;2023-01-29T16:54:10;95372.03;;;-4.24;99.40